sensor_id;sensor_type;location;lat;lon;timestamp;P1;durP1;ratioP1;P2;durP2;ratioP2
64799;SDS011;51233;51.982;4.594;2023-09-19T00:01:11;4.85;;;1.85;;
64799;SDS011;51233;51.982;4.594;2023-09-19T00:04:12;7.13;;;1.85;;
64799;SDS011;51233;51.982;4.594;2023-09-19T00:07:12;4.40;;;1.87;;
64799;SDS011;51233;51.982;4.594;2023-09-19T00:10:13;8.98;;;1.85;;
64799;SDS011;51233;51.982;4.594;2023-09-19T00:13:15;4.30;;;1.60;;
64799;SDS011;51233;51.982;4.594;2023-09-19T00:16:15;8.57;;;1.73;;
64799;SDS011;51233;51.982;4.594;2023-09-19T00:19:15;4.47;;;1.70;;
64799;SDS011;51233;51.982;4.594;2023-09-19T00:22:16;3.53;;;1.60;;
64799;SDS011;51233;51.982;4.594;2023-09-19T00:25:16;4.77;;;1.77;;
64799;SDS011;51233;51.982;4.594;2023-09-19T00:28:17;6.43;;;1.73;;
64799;SDS011;51233;51.982;4.594;2023-09-19T00:31:19;4.32;;;1.50;;
64799;SDS011;51233;51.982;4.594;2023-09-19T00:34:19;3.87;;;1.90;;
64799;SDS011;51233;51.982;4.594;2023-09-19T00:37:20;4.63;;;1.63;;
64799;SDS011;51233;51.982;4.594;2023-09-19T00:40:20;4.10;;;1.77;;
64799;SDS011;51233;51.982;4.594;2023-09-19T00:43:21;7.37;;;2.00;;
64799;SDS011;51233;51.982;4.594;2023-09-19T00:46:24;4.70;;;1.77;;
64799;SDS011;51233;51.982;4.594;2023-09-19T00:52:25;3.63;;;1.40;;
64799;SDS011;51233;51.982;4.594;2023-09-19T00:55:26;7.78;;;2.08;;
64799;SDS011;51233;51.982;4.594;2023-09-19T00:58:30;8.52;;;1.75;;
64799;SDS011;51233;51.982;4.594;2023-09-19T01:01:33;5.65;;;1.70;;
64799;SDS011;51233;51.982;4.594;2023-09-19T01:04:34;8.00;;;2.05;;
64799;SDS011;51233;51.982;4.594;2023-09-19T01:07:35;6.63;;;2.00;;
64799;SDS011;51233;51.982;4.594;2023-09-19T01:10:36;12.20;;;2.30;;
64799;SDS011;51233;51.982;4.594;2023-09-19T01:13:44;9.73;;;2.25;;
64799;SDS011;51233;51.982;4.594;2023-09-19T01:26:42;11.43;;;2.77;;
64799;SDS011;51233;51.982;4.594;2023-09-19T01:29:39;9.57;;;2.50;;
64799;SDS011;51233;51.982;4.594;2023-09-19T01:32:39;10.30;;;2.40;;
64799;SDS011;51233;51.982;4.594;2023-09-19T01:35:41;11.25;;;2.83;;
64799;SDS011;51233;51.982;4.594;2023-09-19T01:38:41;11.10;;;2.80;;
64799;SDS011;51233;51.982;4.594;2023-09-19T01:45:16;10.07;;;2.83;;
64799;SDS011;51233;51.982;4.594;2023-09-19T01:54:52;11.77;;;2.90;;
64799;SDS011;51233;51.982;4.594;2023-09-19T02:01:00;15.23;;;3.30;;
64799;SDS011;51233;51.982;4.594;2023-09-19T02:04:00;11.87;;;2.90;;
64799;SDS011;51233;51.982;4.594;2023-09-19T02:07:00;10.20;;;2.27;;
64799;SDS011;51233;51.982;4.594;2023-09-19T02:10:01;9.33;;;2.50;;
64799;SDS011;51233;51.982;4.594;2023-09-19T02:13:03;12.10;;;2.25;;
64799;SDS011;51233;51.982;4.594;2023-09-19T02:16:04;10.68;;;2.53;;
64799;SDS011;51233;51.982;4.594;2023-09-19T02:19:05;7.77;;;2.53;;
64799;SDS011;51233;51.982;4.594;2023-09-19T02:22:06;12.93;;;2.20;;
64799;SDS011;51233;51.982;4.594;2023-09-19T02:25:10;11.18;;;2.55;;
64799;SDS011;51233;51.982;4.594;2023-09-19T02:28:10;9.63;;;2.70;;
64799;SDS011;51233;51.982;4.594;2023-09-19T02:31:11;5.83;;;1.80;;
64799;SDS011;51233;51.982;4.594;2023-09-19T02:34:12;7.60;;;2.20;;
64799;SDS011;51233;51.982;4.594;2023-09-19T02:37:12;5.43;;;2.10;;
64799;SDS011;51233;51.982;4.594;2023-09-19T02:40:13;10.80;;;2.55;;
64799;SDS011;51233;51.982;4.594;2023-09-19T02:43:19;9.25;;;2.30;;
64799;SDS011;51233;51.982;4.594;2023-09-19T02:46:19;11.23;;;3.03;;
64799;SDS011;51233;51.982;4.594;2023-09-19T02:49:20;9.33;;;2.10;;
64799;SDS011;51233;51.982;4.594;2023-09-19T02:52:20;9.83;;;2.50;;
64799;SDS011;51233;51.982;4.594;2023-09-19T02:55:20;3.67;;;1.67;;
64799;SDS011;51233;51.982;4.594;2023-09-19T02:58:21;8.70;;;2.45;;
64799;SDS011;51233;51.982;4.594;2023-09-19T03:01:23;8.63;;;2.17;;
64799;SDS011;51233;51.982;4.594;2023-09-19T03:04:23;12.33;;;2.50;;
64799;SDS011;51233;51.982;4.594;2023-09-19T03:07:24;9.73;;;2.20;;
64799;SDS011;51233;51.982;4.594;2023-09-19T03:10:25;11.07;;;2.40;;
64799;SDS011;51233;51.982;4.594;2023-09-19T03:13:25;6.03;;;2.00;;
64799;SDS011;51233;51.982;4.594;2023-09-19T03:16:25;9.05;;;2.22;;
64799;SDS011;51233;51.982;4.594;2023-09-19T03:19:25;9.60;;;1.90;;
64799;SDS011;51233;51.982;4.594;2023-09-19T03:22:26;9.80;;;2.43;;
64799;SDS011;51233;51.982;4.594;2023-09-19T03:25:27;7.13;;;1.93;;
64799;SDS011;51233;51.982;4.594;2023-09-19T03:28:28;10.63;;;2.50;;
64799;SDS011;51233;51.982;4.594;2023-09-19T03:31:29;10.00;;;2.50;;
64799;SDS011;51233;51.982;4.594;2023-09-19T03:34:30;8.25;;;2.70;;
64799;SDS011;51233;51.982;4.594;2023-09-19T03:37:31;7.30;;;2.23;;
64799;SDS011;51233;51.982;4.594;2023-09-19T03:40:31;12.27;;;2.63;;
64799;SDS011;51233;51.982;4.594;2023-09-19T03:43:32;11.00;;;2.73;;
64799;SDS011;51233;51.982;4.594;2023-09-19T03:46:32;10.10;;;2.73;;
64799;SDS011;51233;51.982;4.594;2023-09-19T03:49:33;13.43;;;3.07;;
64799;SDS011;51233;51.982;4.594;2023-09-19T03:52:34;10.13;;;2.53;;
64799;SDS011;51233;51.982;4.594;2023-09-19T03:55:34;10.33;;;2.73;;
64799;SDS011;51233;51.982;4.594;2023-09-19T03:58:38;11.05;;;2.50;;
64799;SDS011;51233;51.982;4.594;2023-09-19T04:01:40;11.15;;;2.75;;
64799;SDS011;51233;51.982;4.594;2023-09-19T04:04:41;9.38;;;2.95;;
64799;SDS011;51233;51.982;4.594;2023-09-19T04:07:41;11.60;;;2.80;;
64799;SDS011;51233;51.982;4.594;2023-09-19T04:10:42;12.15;;;2.50;;
64799;SDS011;51233;51.982;4.594;2023-09-19T04:13:42;12.65;;;2.53;;
64799;SDS011;51233;51.982;4.594;2023-09-19T04:16:42;10.67;;;2.60;;
64799;SDS011;51233;51.982;4.594;2023-09-19T04:19:42;14.45;;;2.97;;
64799;SDS011;51233;51.982;4.594;2023-09-19T04:22:43;12.27;;;2.63;;
64799;SDS011;51233;51.982;4.594;2023-09-19T04:25:43;16.50;;;3.10;;
64799;SDS011;51233;51.982;4.594;2023-09-19T04:28:43;10.80;;;2.47;;
64799;SDS011;51233;51.982;4.594;2023-09-19T04:31:44;7.80;;;2.80;;
64799;SDS011;51233;51.982;4.594;2023-09-19T04:34:45;12.55;;;2.70;;
64799;SDS011;51233;51.982;4.594;2023-09-19T04:37:48;11.20;;;2.78;;
64799;SDS011;51233;51.982;4.594;2023-09-19T04:40:50;9.27;;;2.67;;
64799;SDS011;51233;51.982;4.594;2023-09-19T04:43:56;12.70;;;2.90;;
64799;SDS011;51233;51.982;4.594;2023-09-19T04:46:56;10.50;;;2.50;;
64799;SDS011;51233;51.982;4.594;2023-09-19T04:49:57;13.30;;;2.73;;
64799;SDS011;51233;51.982;4.594;2023-09-19T04:52:59;5.32;;;1.88;;
64799;SDS011;51233;51.982;4.594;2023-09-19T04:56:00;16.08;;;2.78;;
64799;SDS011;51233;51.982;4.594;2023-09-19T04:59:00;6.90;;;2.75;;
64799;SDS011;51233;51.982;4.594;2023-09-19T05:02:00;11.40;;;2.30;;
64799;SDS011;51233;51.982;4.594;2023-09-19T05:05:00;7.40;;;2.80;;
64799;SDS011;51233;51.982;4.594;2023-09-19T05:08:01;13.27;;;2.90;;
64799;SDS011;51233;51.982;4.594;2023-09-19T05:11:05;7.43;;;2.30;;
64799;SDS011;51233;51.982;4.594;2023-09-19T05:14:05;7.40;;;2.37;;
64799;SDS011;51233;51.982;4.594;2023-09-19T05:17:06;8.52;;;2.17;;
64799;SDS011;51233;51.982;4.594;2023-09-19T05:20:06;10.10;;;2.83;;
64799;SDS011;51233;51.982;4.594;2023-09-19T05:23:14;10.63;;;2.15;;
64799;SDS011;51233;51.982;4.594;2023-09-19T05:26:14;8.95;;;2.45;;
64799;SDS011;51233;51.982;4.594;2023-09-19T05:32:16;11.15;;;2.33;;
64799;SDS011;51233;51.982;4.594;2023-09-19T05:35:19;9.77;;;2.75;;
64799;SDS011;51233;51.982;4.594;2023-09-19T05:38:21;11.30;;;2.67;;
64799;SDS011;51233;51.982;4.594;2023-09-19T05:41:22;11.77;;;3.05;;
64799;SDS011;51233;51.982;4.594;2023-09-19T05:44:23;16.53;;;3.43;;
64799;SDS011;51233;51.982;4.594;2023-09-19T05:47:23;8.97;;;2.83;;
64799;SDS011;51233;51.982;4.594;2023-09-19T05:50:25;13.63;;;2.85;;
64799;SDS011;51233;51.982;4.594;2023-09-19T05:53:25;15.13;;;3.00;;
64799;SDS011;51233;51.982;4.594;2023-09-19T05:56:25;12.98;;;2.97;;
64799;SDS011;51233;51.982;4.594;2023-09-19T05:59:25;10.60;;;3.13;;
64799;SDS011;51233;51.982;4.594;2023-09-19T06:02:26;10.50;;;3.00;;
64799;SDS011;51233;51.982;4.594;2023-09-19T06:05:30;8.70;;;2.88;;
64799;SDS011;51233;51.982;4.594;2023-09-19T06:08:33;8.50;;;2.80;;
64799;SDS011;51233;51.982;4.594;2023-09-19T06:11:34;14.47;;;3.20;;
64799;SDS011;51233;51.982;4.594;2023-09-19T06:14:34;11.50;;;3.00;;
64799;SDS011;51233;51.982;4.594;2023-09-19T06:17:34;16.17;;;2.97;;
64799;SDS011;51233;51.982;4.594;2023-09-19T06:20:37;12.88;;;3.25;;
64799;SDS011;51233;51.982;4.594;2023-09-19T06:23:38;11.43;;;3.10;;
64799;SDS011;51233;51.982;4.594;2023-09-19T06:26:38;13.63;;;3.53;;
64799;SDS011;51233;51.982;4.594;2023-09-19T06:29:38;13.80;;;3.78;;
64799;SDS011;51233;51.982;4.594;2023-09-19T06:32:39;9.63;;;3.07;;
64799;SDS011;51233;51.982;4.594;2023-09-19T06:35:39;11.60;;;3.00;;
64799;SDS011;51233;51.982;4.594;2023-09-19T06:38:39;14.25;;;3.38;;
64799;SDS011;51233;51.982;4.594;2023-09-19T06:41:41;10.48;;;3.15;;
64799;SDS011;51233;51.982;4.594;2023-09-19T06:44:41;13.17;;;3.57;;
64799;SDS011;51233;51.982;4.594;2023-09-19T06:47:41;10.40;;;2.80;;
64799;SDS011;51233;51.982;4.594;2023-09-19T06:50:43;12.82;;;3.15;;
64799;SDS011;51233;51.982;4.594;2023-09-19T06:53:44;9.40;;;2.80;;
64799;SDS011;51233;51.982;4.594;2023-09-19T06:56:44;11.07;;;3.20;;
64799;SDS011;51233;51.982;4.594;2023-09-19T06:59:45;15.13;;;2.88;;
64799;SDS011;51233;51.982;4.594;2023-09-19T07:02:54;12.10;;;3.10;;
64799;SDS011;51233;51.982;4.594;2023-09-19T07:05:57;12.25;;;3.30;;
64799;SDS011;51233;51.982;4.594;2023-09-19T07:08:58;10.98;;;3.03;;
64799;SDS011;51233;51.982;4.594;2023-09-19T07:11:58;12.70;;;2.87;;
64799;SDS011;51233;51.982;4.594;2023-09-19T07:14:58;14.93;;;3.65;;
64799;SDS011;51233;51.982;4.594;2023-09-19T07:17:59;15.40;;;3.63;;
64799;SDS011;51233;51.982;4.594;2023-09-19T07:21:00;11.63;;;3.90;;
64799;SDS011;51233;51.982;4.594;2023-09-19T07:24:05;12.95;;;3.45;;
64799;SDS011;51233;51.982;4.594;2023-09-19T07:27:05;12.10;;;3.33;;
64799;SDS011;51233;51.982;4.594;2023-09-19T07:30:06;7.87;;;2.50;;
64799;SDS011;51233;51.982;4.594;2023-09-19T07:33:06;12.23;;;3.40;;
64799;SDS011;51233;51.982;4.594;2023-09-19T07:36:09;11.80;;;3.33;;
64799;SDS011;51233;51.982;4.594;2023-09-19T07:39:10;10.93;;;2.92;;
64799;SDS011;51233;51.982;4.594;2023-09-19T07:42:10;12.50;;;3.47;;
64799;SDS011;51233;51.982;4.594;2023-09-19T07:45:13;16.98;;;4.10;;
64799;SDS011;51233;51.982;4.594;2023-09-19T07:48:16;14.77;;;3.83;;
64799;SDS011;51233;51.982;4.594;2023-09-19T07:51:17;16.73;;;4.00;;
64799;SDS011;51233;51.982;4.594;2023-09-19T07:54:17;18.27;;;3.67;;
64799;SDS011;51233;51.982;4.594;2023-09-19T07:57:17;14.80;;;3.80;;
64799;SDS011;51233;51.982;4.594;2023-09-19T08:00:17;15.77;;;4.20;;
64799;SDS011;51233;51.982;4.594;2023-09-19T08:03:18;12.67;;;3.63;;
64799;SDS011;51233;51.982;4.594;2023-09-19T08:06:18;13.23;;;3.63;;
64799;SDS011;51233;51.982;4.594;2023-09-19T08:09:20;11.18;;;3.65;;
64799;SDS011;51233;51.982;4.594;2023-09-19T08:12:20;17.80;;;4.33;;
64799;SDS011;51233;51.982;4.594;2023-09-19T08:15:24;12.18;;;3.60;;
64799;SDS011;51233;51.982;4.594;2023-09-19T08:18:24;13.40;;;4.03;;
64799;SDS011;51233;51.982;4.594;2023-09-19T08:21:26;11.63;;;2.80;;
64799;SDS011;51233;51.982;4.594;2023-09-19T08:24:29;18.15;;;3.75;;
64799;SDS011;51233;51.982;4.594;2023-09-19T08:27:30;13.63;;;3.63;;
64799;SDS011;51233;51.982;4.594;2023-09-19T08:30:30;18.50;;;4.37;;
64799;SDS011;51233;51.982;4.594;2023-09-19T08:33:31;16.37;;;3.23;;
64799;SDS011;51233;51.982;4.594;2023-09-19T08:36:32;17.20;;;3.50;;
64799;SDS011;51233;51.982;4.594;2023-09-19T08:39:32;10.33;;;3.47;;
64799;SDS011;51233;51.982;4.594;2023-09-19T08:42:54;14.73;;;2.60;;
64799;SDS011;51233;51.982;4.594;2023-09-19T08:46:15;12.02;;;3.13;;
64799;SDS011;51233;51.982;4.594;2023-09-19T08:49:19;13.73;;;3.67;;
64799;SDS011;51233;51.982;4.594;2023-09-19T08:52:27;14.75;;;3.58;;
64799;SDS011;51233;51.982;4.594;2023-09-19T08:55:28;15.68;;;3.78;;
64799;SDS011;51233;51.982;4.594;2023-09-19T08:58:31;17.20;;;4.60;;
64799;SDS011;51233;51.982;4.594;2023-09-19T09:01:33;16.00;;;3.42;;
64799;SDS011;51233;51.982;4.594;2023-09-19T09:04:34;12.00;;;3.83;;
64799;SDS011;51233;51.982;4.594;2023-09-19T09:07:35;14.77;;;3.83;;
64799;SDS011;51233;51.982;4.594;2023-09-19T09:13:36;14.38;;;3.40;;
64799;SDS011;51233;51.982;4.594;2023-09-19T09:16:37;11.03;;;3.73;;
64799;SDS011;51233;51.982;4.594;2023-09-19T09:19:38;12.37;;;3.83;;
64799;SDS011;51233;51.982;4.594;2023-09-19T09:22:38;13.17;;;3.57;;
64799;SDS011;51233;51.982;4.594;2023-09-19T09:25:53;14.38;;;2.90;;
64799;SDS011;51233;51.982;4.594;2023-09-19T09:28:59;14.77;;;3.92;;
64799;SDS011;51233;51.982;4.594;2023-09-19T09:31:59;13.00;;;3.33;;
64799;SDS011;51233;51.982;4.594;2023-09-19T09:35:18;13.98;;;3.47;;
64799;SDS011;51233;51.982;4.594;2023-09-19T09:38:21;13.98;;;3.58;;
64799;SDS011;51233;51.982;4.594;2023-09-19T09:41:35;11.75;;;3.03;;
64799;SDS011;51233;51.982;4.594;2023-09-19T09:50:49;14.35;;;3.75;;
64799;SDS011;51233;51.982;4.594;2023-09-19T09:54:09;16.73;;;3.70;;
64799;SDS011;51233;51.982;4.594;2023-09-19T09:57:10;11.10;;;3.20;;
64799;SDS011;51233;51.982;4.594;2023-09-19T10:00:13;14.57;;;3.53;;
64799;SDS011;51233;51.982;4.594;2023-09-19T10:03:19;14.57;;;3.43;;
64799;SDS011;51233;51.982;4.594;2023-09-19T10:06:21;13.32;;;3.10;;
64799;SDS011;51233;51.982;4.594;2023-09-19T10:09:28;11.50;;;3.30;;
64799;SDS011;51233;51.982;4.594;2023-09-19T10:12:31;12.23;;;3.40;;
64799;SDS011;51233;51.982;4.594;2023-09-19T10:15:32;9.13;;;3.07;;
64799;SDS011;51233;51.982;4.594;2023-09-19T10:18:32;14.63;;;3.13;;
64799;SDS011;51233;51.982;4.594;2023-09-19T10:21:36;15.90;;;3.05;;
64799;SDS011;51233;51.982;4.594;2023-09-19T10:24:39;14.60;;;3.28;;
64799;SDS011;51233;51.982;4.594;2023-09-19T10:27:40;11.23;;;2.90;;
64799;SDS011;51233;51.982;4.594;2023-09-19T10:30:43;8.55;;;3.03;;
64799;SDS011;51233;51.982;4.594;2023-09-19T10:33:45;8.88;;;2.33;;
64799;SDS011;51233;51.982;4.594;2023-09-19T10:36:46;12.75;;;3.00;;
64799;SDS011;51233;51.982;4.594;2023-09-19T10:39:49;11.25;;;3.22;;
64799;SDS011;51233;51.982;4.594;2023-09-19T10:42:49;9.40;;;2.67;;
64799;SDS011;51233;51.982;4.594;2023-09-19T10:45:50;8.73;;;3.00;;
64799;SDS011;51233;51.982;4.594;2023-09-19T10:48:52;6.95;;;2.25;;
64799;SDS011;51233;51.982;4.594;2023-09-19T10:51:55;8.48;;;2.67;;
64799;SDS011;51233;51.982;4.594;2023-09-19T10:54:58;10.68;;;2.70;;
64799;SDS011;51233;51.982;4.594;2023-09-19T10:58:01;10.10;;;2.45;;
64799;SDS011;51233;51.982;4.594;2023-09-19T11:01:09;11.23;;;2.65;;
64799;SDS011;51233;51.982;4.594;2023-09-19T11:04:22;8.50;;;2.60;;
64799;SDS011;51233;51.982;4.594;2023-09-19T11:07:24;10.82;;;2.47;;
64799;SDS011;51233;51.982;4.594;2023-09-19T11:13:28;6.65;;;2.03;;
64799;SDS011;51233;51.982;4.594;2023-09-19T11:16:31;9.02;;;2.10;;
64799;SDS011;51233;51.982;4.594;2023-09-19T11:23:17;9.27;;;2.40;;
64799;SDS011;51233;51.982;4.594;2023-09-19T11:26:10;6.88;;;2.30;;
64799;SDS011;51233;51.982;4.594;2023-09-19T11:29:30;8.07;;;2.05;;
64799;SDS011;51233;51.982;4.594;2023-09-19T11:39:00;7.50;;;2.28;;
64799;SDS011;51233;51.982;4.594;2023-09-19T11:42:40;6.82;;;1.80;;
64799;SDS011;51233;51.982;4.594;2023-09-19T11:48:46;8.05;;;2.25;;
64799;SDS011;51233;51.982;4.594;2023-09-19T11:51:47;7.05;;;2.20;;
64799;SDS011;51233;51.982;4.594;2023-09-19T11:54:54;8.55;;;2.00;;
64799;SDS011;51233;51.982;4.594;2023-09-19T11:57:57;9.18;;;2.05;;
64799;SDS011;51233;51.982;4.594;2023-09-19T12:00:57;9.70;;;2.00;;
64799;SDS011;51233;51.982;4.594;2023-09-19T12:06:59;8.38;;;1.67;;
64799;SDS011;51233;51.982;4.594;2023-09-19T12:10:03;6.33;;;2.00;;
64799;SDS011;51233;51.982;4.594;2023-09-19T12:13:04;8.25;;;2.10;;
64799;SDS011;51233;51.982;4.594;2023-09-19T12:16:14;9.15;;;2.30;;
64799;SDS011;51233;51.982;4.594;2023-09-19T12:19:18;7.45;;;1.88;;
64799;SDS011;51233;51.982;4.594;2023-09-19T12:22:21;6.82;;;1.50;;
64799;SDS011;51233;51.982;4.594;2023-09-19T12:25:21;6.07;;;1.90;;
64799;SDS011;51233;51.982;4.594;2023-09-19T12:28:21;7.47;;;2.20;;
64799;SDS011;51233;51.982;4.594;2023-09-19T12:31:24;4.93;;;1.85;;
64799;SDS011;51233;51.982;4.594;2023-09-19T12:34:27;6.47;;;1.60;;
64799;SDS011;51233;51.982;4.594;2023-09-19T12:37:28;6.72;;;1.80;;
64799;SDS011;51233;51.982;4.594;2023-09-19T12:40:29;7.38;;;1.80;;
64799;SDS011;51233;51.982;4.594;2023-09-19T12:43:33;7.72;;;1.88;;
64799;SDS011;51233;51.982;4.594;2023-09-19T12:46:33;3.33;;;1.50;;
64799;SDS011;51233;51.982;4.594;2023-09-19T12:49:33;4.00;;;1.67;;
64799;SDS011;51233;51.982;4.594;2023-09-19T12:52:34;7.85;;;1.88;;
64799;SDS011;51233;51.982;4.594;2023-09-19T12:55:36;4.65;;;1.90;;
64799;SDS011;51233;51.982;4.594;2023-09-19T12:58:50;4.60;;;1.60;;
64799;SDS011;51233;51.982;4.594;2023-09-19T13:01:51;6.43;;;2.08;;
64799;SDS011;51233;51.982;4.594;2023-09-19T13:05:03;3.88;;;1.70;;
64799;SDS011;51233;51.982;4.594;2023-09-19T13:08:28;5.80;;;1.58;;
64799;SDS011;51233;51.982;4.594;2023-09-19T13:11:35;6.15;;;2.05;;
64799;SDS011;51233;51.982;4.594;2023-09-19T13:14:38;6.68;;;1.70;;
64799;SDS011;51233;51.982;4.594;2023-09-19T13:17:45;10.55;;;2.08;;
64799;SDS011;51233;51.982;4.594;2023-09-19T13:21:05;5.60;;;1.90;;
64799;SDS011;51233;51.982;4.594;2023-09-19T13:24:18;8.02;;;2.15;;
64799;SDS011;51233;51.982;4.594;2023-09-19T13:27:18;9.20;;;2.45;;
64799;SDS011;51233;51.982;4.594;2023-09-19T13:30:19;6.68;;;2.08;;
64799;SDS011;51233;51.982;4.594;2023-09-19T13:33:19;8.13;;;1.87;;
64799;SDS011;51233;51.982;4.594;2023-09-19T13:39:21;7.43;;;1.90;;
64799;SDS011;51233;51.982;4.594;2023-09-19T13:42:24;5.53;;;2.40;;
64799;SDS011;51233;51.982;4.594;2023-09-19T13:45:25;5.23;;;1.83;;
64799;SDS011;51233;51.982;4.594;2023-09-19T13:48:30;5.90;;;1.83;;
64799;SDS011;51233;51.982;4.594;2023-09-19T13:51:31;4.90;;;1.80;;
64799;SDS011;51233;51.982;4.594;2023-09-19T13:54:31;9.13;;;2.50;;
64799;SDS011;51233;51.982;4.594;2023-09-19T13:57:31;9.63;;;2.25;;
64799;SDS011;51233;51.982;4.594;2023-09-19T14:03:36;9.05;;;3.50;;
64799;SDS011;51233;51.982;4.594;2023-09-19T14:06:36;9.20;;;2.92;;
64799;SDS011;51233;51.982;4.594;2023-09-19T14:09:37;10.07;;;2.13;;
64799;SDS011;51233;51.982;4.594;2023-09-19T14:12:38;6.27;;;2.53;;
64799;SDS011;51233;51.982;4.594;2023-09-19T14:15:40;6.95;;;2.92;;
64799;SDS011;51233;51.982;4.594;2023-09-19T14:18:40;10.20;;;2.53;;
64799;SDS011;51233;51.982;4.594;2023-09-19T14:21:42;10.80;;;2.28;;
64799;SDS011;51233;51.982;4.594;2023-09-19T14:24:42;5.43;;;2.27;;
64799;SDS011;51233;51.982;4.594;2023-09-19T14:27:42;10.43;;;2.90;;
64799;SDS011;51233;51.982;4.594;2023-09-19T14:30:42;5.70;;;2.30;;
64799;SDS011;51233;51.982;4.594;2023-09-19T14:33:42;7.97;;;2.10;;
64799;SDS011;51233;51.982;4.594;2023-09-19T14:36:44;10.40;;;2.80;;
64799;SDS011;51233;51.982;4.594;2023-09-19T14:39:44;9.10;;;2.40;;
64799;SDS011;51233;51.982;4.594;2023-09-19T14:42:44;9.37;;;3.00;;
64799;SDS011;51233;51.982;4.594;2023-09-19T14:45:45;11.17;;;2.93;;
64799;SDS011;51233;51.982;4.594;2023-09-19T14:48:45;8.53;;;2.50;;
64799;SDS011;51233;51.982;4.594;2023-09-19T14:51:47;6.40;;;2.33;;
64799;SDS011;51233;51.982;4.594;2023-09-19T14:54:48;6.70;;;2.20;;
64799;SDS011;51233;51.982;4.594;2023-09-19T14:57:51;8.70;;;3.00;;
64799;SDS011;51233;51.982;4.594;2023-09-19T15:00:51;8.85;;;2.85;;
64799;SDS011;51233;51.982;4.594;2023-09-19T15:03:52;11.13;;;3.67;;
64799;SDS011;51233;51.982;4.594;2023-09-19T15:06:54;10.07;;;2.38;;
64799;SDS011;51233;51.982;4.594;2023-09-19T15:09:54;11.73;;;2.90;;
64799;SDS011;51233;51.982;4.594;2023-09-19T15:12:55;10.10;;;2.77;;
64799;SDS011;51233;51.982;4.594;2023-09-19T15:16:01;18.87;;;3.30;;
64799;SDS011;51233;51.982;4.594;2023-09-19T15:19:02;9.00;;;2.67;;
64799;SDS011;51233;51.982;4.594;2023-09-19T15:22:02;11.00;;;3.53;;
64799;SDS011;51233;51.982;4.594;2023-09-19T15:25:02;7.53;;;2.87;;
64799;SDS011;51233;51.982;4.594;2023-09-19T15:28:04;9.38;;;3.05;;
64799;SDS011;51233;51.982;4.594;2023-09-19T15:31:09;12.82;;;3.17;;
64799;SDS011;51233;51.982;4.594;2023-09-19T15:34:09;9.40;;;3.30;;
64799;SDS011;51233;51.982;4.594;2023-09-19T15:37:14;15.15;;;2.67;;
64799;SDS011;51233;51.982;4.594;2023-09-19T15:40:14;7.32;;;2.42;;
64799;SDS011;51233;51.982;4.594;2023-09-19T15:43:14;9.13;;;2.67;;
64799;SDS011;51233;51.982;4.594;2023-09-19T15:46:14;6.82;;;2.50;;
64799;SDS011;51233;51.982;4.594;2023-09-19T15:49:15;10.27;;;2.90;;
64799;SDS011;51233;51.982;4.594;2023-09-19T15:52:16;15.10;;;3.27;;
64799;SDS011;51233;51.982;4.594;2023-09-19T15:55:16;11.27;;;3.53;;
64799;SDS011;51233;51.982;4.594;2023-09-19T15:58:17;7.90;;;2.80;;
64799;SDS011;51233;51.982;4.594;2023-09-19T16:01:17;9.17;;;2.87;;
64799;SDS011;51233;51.982;4.594;2023-09-19T16:04:17;12.20;;;2.90;;
64799;SDS011;51233;51.982;4.594;2023-09-19T16:07:17;11.50;;;3.17;;
64799;SDS011;51233;51.982;4.594;2023-09-19T16:10:18;10.10;;;3.03;;
64799;SDS011;51233;51.982;4.594;2023-09-19T16:13:19;12.67;;;2.93;;
64799;SDS011;51233;51.982;4.594;2023-09-19T16:16:20;8.65;;;2.83;;
64799;SDS011;51233;51.982;4.594;2023-09-19T16:19:22;7.18;;;2.97;;
64799;SDS011;51233;51.982;4.594;2023-09-19T16:22:23;8.50;;;3.17;;
64799;SDS011;51233;51.982;4.594;2023-09-19T16:25:23;8.00;;;2.70;;
64799;SDS011;51233;51.982;4.594;2023-09-19T16:28:24;11.15;;;2.60;;
64799;SDS011;51233;51.982;4.594;2023-09-19T16:31:24;10.10;;;3.40;;
64799;SDS011;51233;51.982;4.594;2023-09-19T16:34:25;14.75;;;3.63;;
64799;SDS011;51233;51.982;4.594;2023-09-19T16:37:26;8.57;;;3.30;;
64799;SDS011;51233;51.982;4.594;2023-09-19T16:40:26;8.30;;;3.13;;
64799;SDS011;51233;51.982;4.594;2023-09-19T16:43:27;9.93;;;3.20;;
64799;SDS011;51233;51.982;4.594;2023-09-19T16:46:27;10.80;;;3.57;;
64799;SDS011;51233;51.982;4.594;2023-09-19T16:49:28;10.80;;;4.00;;
64799;SDS011;51233;51.982;4.594;2023-09-19T16:52:29;12.75;;;3.40;;
64799;SDS011;51233;51.982;4.594;2023-09-19T16:55:29;9.53;;;3.20;;
64799;SDS011;51233;51.982;4.594;2023-09-19T16:58:29;13.07;;;3.70;;
64799;SDS011;51233;51.982;4.594;2023-09-19T17:01:29;9.02;;;3.15;;
64799;SDS011;51233;51.982;4.594;2023-09-19T17:04:32;11.68;;;3.63;;
64799;SDS011;51233;51.982;4.594;2023-09-19T17:07:32;10.53;;;3.40;;
64799;SDS011;51233;51.982;4.594;2023-09-19T17:10:33;10.53;;;3.70;;
64799;SDS011;51233;51.982;4.594;2023-09-19T17:13:34;12.00;;;4.13;;
64799;SDS011;51233;51.982;4.594;2023-09-19T17:19:37;8.63;;;3.33;;
64799;SDS011;51233;51.982;4.594;2023-09-19T17:22:37;7.97;;;3.22;;
64799;SDS011;51233;51.982;4.594;2023-09-19T17:25:37;11.63;;;2.93;;
64799;SDS011;51233;51.982;4.594;2023-09-19T17:28:38;10.07;;;2.90;;
64799;SDS011;51233;51.982;4.594;2023-09-19T17:31:38;10.40;;;3.60;;
64799;SDS011;51233;51.982;4.594;2023-09-19T17:34:39;12.50;;;3.57;;
64799;SDS011;51233;51.982;4.594;2023-09-19T17:37:39;8.27;;;2.75;;
64799;SDS011;51233;51.982;4.594;2023-09-19T17:40:40;6.80;;;2.50;;
64799;SDS011;51233;51.982;4.594;2023-09-19T17:43:40;7.00;;;2.90;;
64799;SDS011;51233;51.982;4.594;2023-09-19T17:46:40;7.20;;;2.20;;
64799;SDS011;51233;51.982;4.594;2023-09-19T17:49:40;8.27;;;2.93;;
64799;SDS011;51233;51.982;4.594;2023-09-19T17:52:41;8.30;;;2.90;;
64799;SDS011;51233;51.982;4.594;2023-09-19T17:55:42;8.27;;;2.75;;
64799;SDS011;51233;51.982;4.594;2023-09-19T17:58:44;7.53;;;3.10;;
64799;SDS011;51233;51.982;4.594;2023-09-19T18:01:45;8.10;;;2.92;;
64799;SDS011;51233;51.982;4.594;2023-09-19T18:04:46;9.17;;;3.20;;
64799;SDS011;51233;51.982;4.594;2023-09-19T18:07:46;7.03;;;3.27;;
64799;SDS011;51233;51.982;4.594;2023-09-19T18:10:48;9.18;;;2.75;;
64799;SDS011;51233;51.982;4.594;2023-09-19T18:13:49;6.17;;;2.80;;
64799;SDS011;51233;51.982;4.594;2023-09-19T18:16:51;5.45;;;3.03;;
64799;SDS011;51233;51.982;4.594;2023-09-19T18:19:53;5.60;;;2.95;;
64799;SDS011;51233;51.982;4.594;2023-09-19T18:22:53;6.77;;;2.73;;
64799;SDS011;51233;51.982;4.594;2023-09-19T18:26:00;7.68;;;3.20;;
64799;SDS011;51233;51.982;4.594;2023-09-19T18:29:00;4.70;;;1.77;;
64799;SDS011;51233;51.982;4.594;2023-09-19T18:32:00;7.50;;;2.80;;
64799;SDS011;51233;51.982;4.594;2023-09-19T18:35:01;9.88;;;2.78;;
64799;SDS011;51233;51.982;4.594;2023-09-19T18:38:03;8.95;;;2.80;;
64799;SDS011;51233;51.982;4.594;2023-09-19T18:41:05;6.53;;;3.00;;
64799;SDS011;51233;51.982;4.594;2023-09-19T18:44:05;9.30;;;2.70;;
64799;SDS011;51233;51.982;4.594;2023-09-19T18:47:06;13.63;;;3.17;;
64799;SDS011;51233;51.982;4.594;2023-09-19T18:50:06;5.90;;;2.85;;
64799;SDS011;51233;51.982;4.594;2023-09-19T18:53:09;8.27;;;3.30;;
64799;SDS011;51233;51.982;4.594;2023-09-19T18:56:09;8.15;;;3.08;;
64799;SDS011;51233;51.982;4.594;2023-09-19T18:59:14;5.35;;;2.17;;
64799;SDS011;51233;51.982;4.594;2023-09-19T19:02:15;7.78;;;2.90;;
64799;SDS011;51233;51.982;4.594;2023-09-19T19:05:16;9.50;;;3.28;;
64799;SDS011;51233;51.982;4.594;2023-09-19T19:08:16;7.57;;;3.03;;
64799;SDS011;51233;51.982;4.594;2023-09-19T19:11:17;10.50;;;2.70;;
64799;SDS011;51233;51.982;4.594;2023-09-19T19:14:19;8.10;;;3.22;;